Schneifelwetter: Wetterstation Hallschlag, 537 m . NN
Wetterdaten: Dienstag, 25.09.2012
Datum Zeit Temp. A. Feuchte A. Luftdruck Regen Wind Richtung Richtung Sonnenschein T Regen Taupunkt Windchill
25.09.2012 00:14 10,8 C 86 % 998 hPa 0,0 l/m 37,5 km/h (5 Bft) SW67.5 215 0 min 0 min 8,6 C 0,4 C
25.09.2012 00:29 11,1 C 86 % 998 hPa 0,0 l/m 41,2 km/h (6 Bft) SW67.5 230 0 min 0 min 8,8 C 0,4 C
25.09.2012 00:44 11,2 C 86 % 998 hPa 0,0 l/m 37,0 km/h (5 Bft) S-SW45 200 0 min 0 min 8,9 C 1,1 C
25.09.2012 00:59 11,2 C 87 % 998 hPa 0,0 l/m 34,0 km/h (5 Bft) S45 185 0 min 0 min 9,1 C 1,6 C
25.09.2012 01:14 11,3 C 88 % 998 hPa 0,0 l/m 51,1 km/h (7 Bft) SW67.5 215 0 min 0 min 9,4 C -0,4 C
25.09.2012 01:29 11,2 C 89 % 998 hPa 0,3 l/m 36,1 km/h (5 Bft) SW67.5 215 0 min 15 min 9,5 C 1,3 C
25.09.2012 01:44 11,1 C 90 % 998 hPa 0,0 l/m 43,4 km/h (6 Bft) SW45 220 0 min 0 min 9,5 C 0,1 C
25.09.2012 01:59 10,9 C 91 % 998 hPa 0,0 l/m 33,2 km/h (5 Bft) SW45 215 0 min 0 min 9,5 C 1,3 C
25.09.2012 02:14 10,8 C 92 % 998 hPa 1,2 l/m 31,8 km/h (5 Bft) S-SW45 210 0 min 15 min 9,6 C 1,4 C
25.09.2012 02:29 10,7 C 93 % 997 hPa 0,0 l/m 24,5 km/h (4 Bft) S-SW67.5 200 0 min 0 min 9,6 C 2,9 C
25.09.2012 02:44 10,6 C 93 % 997 hPa 0,3 l/m 27,0 km/h (4 Bft) S45 180 0 min 15 min 9,5 C 2,2 C
25.09.2012 02:59 10,6 C 94 % 998 hPa 0,6 l/m 31,3 km/h (5 Bft) SW45 220 0 min 15 min 9,7 C 1,2 C
25.09.2012 03:14 10,6 C 94 % 998 hPa 0,3 l/m 32,7 km/h (5 Bft) S-SW45 200 0 min 15 min 9,7 C 1,0 C
25.09.2012 03:29 10,4 C 94 % 997 hPa 1,5 l/m 29,2 km/h (5 Bft) SW45 225 0 min 15 min 9,5 C 1,4 C
25.09.2012 03:44 10,1 C 94 % 997 hPa 0,3 l/m 23,7 km/h (4 Bft) W-SW67.5 245 0 min 15 min 9,2 C 2,3 C
25.09.2012 03:59 10,0 C 95 % 997 hPa 0,0 l/m 28,6 km/h (4 Bft) W-SW45 245 0 min 0 min 9,2 C 1,0 C
25.09.2012 04:14 9,7 C 95 % 997 hPa 0,0 l/m 32,2 km/h (5 Bft) W-SW45 250 0 min 0 min 8,9 C -0,2 C
25.09.2012 04:29 9,4 C 94 % 997 hPa 0,0 l/m 22,4 km/h (4 Bft) SW67.5 230 0 min 0 min 8,5 C 1,8 C
25.09.2012 04:44 9,4 C 95 % 997 hPa 0,0 l/m 23,7 km/h (4 Bft) SW22.5 220 0 min 0 min 8,6 C 1,4 C
25.09.2012 04:59 9,5 C 95 % 997 hPa 0,0 l/m 32,4 km/h (5 Bft) S-SW67.5 205 0 min 0 min 8,7 C -0,5 C
25.09.2012 05:14 9,4 C 95 % 996 hPa 0,0 l/m 29,1 km/h (5 Bft) S-SW45 195 0 min 0 min 8,6 C 0,0 C
25.09.2012 05:29 9,4 C 95 % 996 hPa 0,0 l/m 20,1 km/h (4 Bft) SW45 215 0 min 0 min 8,6 C 2,5 C
25.09.2012 05:44 9,3 C 95 % 997 hPa 0,0 l/m 24,5 km/h (4 Bft) S-SW45 205 0 min 0 min 8,5 C 1,0 C
25.09.2012 05:59 9,2 C 95 % 997 hPa 0,0 l/m 25,1 km/h (4 Bft) S-SW45 200 0 min 0 min 8,4 C 0,7 C
25.09.2012 06:14 9,4 C 95 % 997 hPa 0,0 l/m 35,8 km/h (5 Bft) W-SW45 240 0 min 0 min 8,6 C -1,3 C
25.09.2012 06:29 9,5 C 95 % 997 hPa 0,0 l/m 29,0 km/h (5 Bft) SW67.5 230 0 min 0 min 8,7 C 0,2 C
25.09.2012 06:44 9,6 C 95 % 997 hPa 0,0 l/m 32,0 km/h (5 Bft) SW67.5 225 0 min 0 min 8,8 C -0,3 C
25.09.2012 06:59 9,6 C 95 % 997 hPa 0,0 l/m 31,9 km/h (5 Bft) SW45 215 0 min 0 min 8,8 C -0,3 C
25.09.2012 07:14 9,5 C 94 % 997 hPa 0,0 l/m 29,6 km/h (5 Bft) SW45 225 0 min 0 min 8,6 C 0,0 C
25.09.2012 07:29 9,4 C 94 % 997 hPa 8,7 l/m 38,9 km/h (6 Bft) SW67.5 230 0 min 15 min 8,5 C -1,8 C
25.09.2012 07:44 9,5 C 93 % 997 hPa 0,0 l/m 38,9 km/h (6 Bft) SW45 225 0 min 0 min 8,4 C -1,7 C
25.09.2012 07:59 9,4 C 93 % 997 hPa 0,0 l/m 35,5 km/h (5 Bft) SW45 215 0 min 0 min 8,3 C -1,3 C
25.09.2012 08:14 9,4 C 93 % 997 hPa 0,0 l/m 29,9 km/h (5 Bft) SW45 215 0 min 0 min 8,3 C -0,2 C
25.09.2012 08:29 9,4 C 93 % 997 hPa 0,0 l/m 26,1 km/h (4 Bft) S-SW67.5 200 0 min 0 min 8,3 C 0,7 C
25.09.2012 08:44 9,4 C 94 % 998 hPa 0,3 l/m 25,5 km/h (4 Bft) SW45 215 0 min 15 min 8,5 C 0,9 C
25.09.2012 08:59 9,3 C 95 % 998 hPa 0,3 l/m 23,6 km/h (4 Bft) S-SW45 195 0 min 15 min 8,5 C 1,3 C
25.09.2012 09:15 9,2 C 95 % 998 hPa 0,0 l/m 20,1 km/h (4 Bft) S-SW45 200 0 min 0 min 8,4 C 2,2 C
25.09.2012 09:30 9,4 C 95 % 998 hPa 0,3 l/m 34,9 km/h (5 Bft) SW67.5 225 0 min 15 min 8,6 C -1,2 C
25.09.2012 09:44 9,3 C 95 % 998 hPa 0,0 l/m 38,3 km/h (5 Bft) S-SW45 200 0 min 0 min 8,5 C -1,9 C
25.09.2012 09:59 9,3 C 94 % 998 hPa 0,0 l/m 27,4 km/h (4 Bft) S-SW67.5 205 0 min 0 min 8,4 C 0,3 C
25.09.2012 10:14 9,4 C 94 % 997 hPa 0,0 l/m 21,6 km/h (4 Bft) S-SW67.5 200 0 min 0 min 8,5 C 2,0 C
25.09.2012 10:29 9,4 C 94 % 998 hPa 0,0 l/m 15,5 km/h (3 Bft) S45 175 0 min 0 min 8,5 C 4,2 C
25.09.2012 10:45 9,6 C 93 % 998 hPa 0,0 l/m 26,0 km/h (4 Bft) S-SW45 210 0 min 0 min 8,5 C 1,0 C
25.09.2012 11:00 9,6 C 93 % 998 hPa 0,0 l/m 33,6 km/h (5 Bft) S-SW45 205 0 min 0 min 8,5 C -0,6 C
25.09.2012 11:14 9,7 C 92 % 998 hPa 0,0 l/m 35,1 km/h (5 Bft) SW45 225 0 min 0 min 8,5 C -0,8 C
25.09.2012 11:29 9,6 C 91 % 998 hPa 0,0 l/m 25,3 km/h (4 Bft) S-SW45 210 0 min 0 min 8,2 C 1,2 C
25.09.2012 11:44 9,6 C 91 % 998 hPa 0,0 l/m 29,5 km/h (5 Bft) S-SW45 210 0 min 0 min 8,2 C 0,2 C
25.09.2012 12:00 9,7 C 91 % 999 hPa 0,0 l/m 30,8 km/h (5 Bft) S-SW67.5 210 0 min 0 min 8,3 C 0,1 C
25.09.2012 12:15 9,7 C 90 % 998 hPa 0,0 l/m 24,2 km/h (4 Bft) S45 190 0 min 0 min 8,1 C 1,6 C
25.09.2012 12:29 10,0 C 90 % 998 hPa 0,0 l/m 23,1 km/h (4 Bft) S-SW45 210 0 min 0 min 8,4 C 2,3 C
25.09.2012 12:44 10,0 C 89 % 998 hPa 0,0 l/m 28,3 km/h (4 Bft) S-SW67.5 195 0 min 0 min 8,3 C 1,0 C
25.09.2012 12:59 10,0 C 89 % 998 hPa 0,0 l/m 32,5 km/h (5 Bft) S-SW45 210 0 min 0 min 8,3 C 0,2 C
25.09.2012 13:14 10,3 C 87 % 998 hPa 0,0 l/m 33,2 km/h (5 Bft) S-SW45 205 0 min 0 min 8,2 C 0,4 C
25.09.2012 13:30 10,6 C 86 % 998 hPa 0,0 l/m 34,4 km/h (5 Bft) SW45 215 0 min 0 min 8,4 C 0,7 C
25.09.2012 13:45 10,3 C 86 % 999 hPa 0,0 l/m 32,6 km/h (5 Bft) S-SW22.5 195 0 min 0 min 8,1 C 0,6 C
25.09.2012 13:59 10,0 C 88 % 998 hPa 0,0 l/m 32,5 km/h (5 Bft) S-SW67.5 200 0 min 0 min 8,1 C 0,2 C
25.09.2012 14:14 10,3 C 88 % 999 hPa 0,0 l/m 36,7 km/h (5 Bft) S-SW67.5 200 0 min 0 min 8,4 C -0,2 C
25.09.2012 14:29 10,4 C 87 % 998 hPa 0,0 l/m 34,0 km/h (5 Bft) S-SW22.5 195 0 min 0 min 8,3 C 0,4 C
25.09.2012 14:44 10,2 C 87 % 999 hPa 0,0 l/m 31,6 km/h (5 Bft) S-SW45 205 0 min 0 min 8,1 C 0,6 C
25.09.2012 15:00 10,1 C 88 % 999 hPa 0,0 l/m 31,0 km/h (5 Bft) S-SW45 205 0 min 0 min 8,2 C 0,6 C
25.09.2012 15:15 10,1 C 89 % 999 hPa 0,0 l/m 30,3 km/h (5 Bft) S-SW45 195 0 min 0 min 8,4 C 0,7 C
25.09.2012 15:29 10,9 C 88 % 999 hPa 0,0 l/m 28,0 km/h (4 Bft) S-SW45 205 0 min 0 min 9,0 C 2,3 C
25.09.2012 15:44 11,1 C 86 % 999 hPa 0,3 l/m 37,9 km/h (5 Bft) S-SW67.5 210 0 min 15 min 8,8 C 0,8 C
25.09.2012 15:59 10,9 C 86 % 999 hPa 0,0 l/m 32,7 km/h (5 Bft) SW45 215 0 min 0 min 8,7 C 1,4 C
25.09.2012 16:14 11,2 C 85 % 999 hPa 0,0 l/m 32,6 km/h (5 Bft) S-SW67.5 205 0 min 0 min 8,8 C 1,8 C
25.09.2012 16:30 11,2 C 86 % 999 hPa 0,0 l/m 28,3 km/h (4 Bft) S-SW45 195 0 min 0 min 8,9 C 2,7 C
25.09.2012 16:45 11,2 C 85 % 999 hPa 0,0 l/m 31,6 km/h (5 Bft) S-SW67.5 205 0 min 0 min 8,8 C 2,0 C
25.09.2012 16:59 11,0 C 86 % 999 hPa 0,0 l/m 26,0 km/h (4 Bft) S-SW45 210 0 min 0 min 8,7 C 2,9 C
25.09.2012 17:14 10,7 C 87 % 999 hPa 0,0 l/m 27,1 km/h (4 Bft) S-SW45 205 0 min 0 min 8,6 C 2,3 C
25.09.2012 17:29 10,5 C 88 % 999 hPa 0,0 l/m 23,6 km/h (4 Bft) S22.5 175 0 min 0 min 8,6 C 2,9 C
25.09.2012 17:44 10,4 C 88 % 999 hPa 0,0 l/m 23,3 km/h (4 Bft) S-SW22.5 205 0 min 0 min 8,5 C 2,8 C
25.09.2012 18:00 10,3 C 88 % 999 hPa 0,0 l/m 20,2 km/h (4 Bft) SW45 220 0 min 0 min 8,4 C 3,6 C
25.09.2012 18:15 10,2 C 89 % 999 hPa 0,0 l/m 21,1 km/h (4 Bft) S-SW45 210 0 min 0 min 8,5 C 3,2 C
25.09.2012 18:29 10,0 C 89 % 999 hPa 0,0 l/m 15,2 km/h (3 Bft) S45 175 0 min 0 min 8,3 C 5,1 C
25.09.2012 18:44 9,8 C 90 % 999 hPa 0,0 l/m 19,2 km/h (3 Bft) S-SW45 195 0 min 0 min 8,2 C 3,3 C
25.09.2012 18:59 9,6 C 91 % 999 hPa 0,0 l/m 21,7 km/h (4 Bft) S-SW45 210 0 min 0 min 8,2 C 2,2 C
25.09.2012 19:14 9,4 C 90 % 999 hPa 0,0 l/m 23,0 km/h (4 Bft) S67.5 185 0 min 0 min 7,8 C 1,6 C
25.09.2012 19:30 9,3 C 91 % 999 hPa 0,0 l/m 23,6 km/h (4 Bft) S-SW45 210 0 min 0 min 7,9 C 1,3 C
25.09.2012 19:45 9,2 C 91 % 999 hPa 0,0 l/m 26,0 km/h (4 Bft) S-SW45 195 0 min 0 min 7,8 C 0,5 C
25.09.2012 19:59 9,2 C 92 % 999 hPa 0,0 l/m 22,6 km/h (4 Bft) S-SW67.5 200 0 min 0 min 8,0 C 1,4 C
25.09.2012 20:14 9,2 C 92 % 999 hPa 0,0 l/m 22,5 km/h (4 Bft) S45 185 0 min 0 min 8,0 C 1,5 C
25.09.2012 20:29 9,4 C 92 % 999 hPa 0,0 l/m 26,7 km/h (4 Bft) S45 190 0 min 0 min 8,2 C 0,6 C
25.09.2012 20:44 9,5 C 92 % 999 hPa 0,0 l/m 26,1 km/h (4 Bft) S22.5 185 0 min 0 min 8,3 C 0,9 C
25.09.2012 21:00 9,4 C 92 % 999 hPa 0,0 l/m 31,7 km/h (5 Bft) S-SW45 200 0 min 0 min 8,2 C -0,5 C
25.09.2012 21:15 9,4 C 92 % 999 hPa 0,0 l/m 25,6 km/h (4 Bft) S-SW67.5 200 0 min 0 min 8,2 C 0,9 C
25.09.2012 21:29 9,4 C 92 % 999 hPa 0,0 l/m 23,1 km/h (4 Bft) S-SW67.5 195 0 min 0 min 8,2 C 1,5 C
25.09.2012 21:44 9,4 C 92 % 999 hPa 0,0 l/m 37,8 km/h (5 Bft) S-SW67.5 205 0 min 0 min 8,2 C -1,7 C
25.09.2012 21:59 9,3 C 92 % 999 hPa 0,0 l/m 21,3 km/h (4 Bft) S45 185 0 min 0 min 8,1 C 2,0 C
25.09.2012 22:14 9,3 C 93 % 999 hPa 0,0 l/m 18,8 km/h (3 Bft) S45 185 0 min 0 min 8,2 C 2,8 C
25.09.2012 22:30 9,4 C 94 % 998 hPa 0,0 l/m 21,8 km/h (4 Bft) S22.5 180 0 min 0 min 8,5 C 1,9 C
25.09.2012 22:45 9,4 C 94 % 998 hPa 0,0 l/m 28,0 km/h (4 Bft) S22.5 170 0 min 0 min 8,5 C 0,3 C
25.09.2012 22:59 9,4 C 94 % 998 hPa 0,0 l/m 22,8 km/h (4 Bft) S22.5 180 0 min 0 min 8,5 C 1,6 C
25.09.2012 23:14 9,4 C 93 % 998 hPa 0,0 l/m 29,2 km/h (5 Bft) S67.5 185 0 min 0 min 8,3 C -0,0 C
25.09.2012 23:29 9,4 C 93 % 998 hPa 0,0 l/m 26,0 km/h (4 Bft) S45 175 0 min 0 min 8,3 C 0,8 C
25.09.2012 23:44 9,5 C 94 % 998 hPa 0,0 l/m 21,9 km/h (4 Bft) S-SW45 205 0 min 0 min 8,6 C 2,0 C
_ Min-Zeit 05:59 16:14 05:14 - 18:29 - - - - 19:45 09:44
Minimum _ 9,2 C 85 % 996 hPa - 15,2 km/h (3 Bft) - - - - 7,8 C -1,9 C
_ Max-Zeit 01:14 03:59 12:00 07:29 01:14 - - 00:14 01:29 02:59 18:29
Maximum _ 11,3 C 95 % 999 hPa 8,7 l/m 51,1 km/h
SW (7 Bft)
- - 0 min 15 min 9,7 C 5,1 C
Durchschnitt _ 9,9 C 91 % 998 hPa #14,4 l/m 28,8 km/h (5 Bft) S-SW - #0 min. #3:00 h 8,6 C 1,0 C